Time;durP1;ratioP1;P1;durP2;ratioP2;P2;SDS_P1;SDS_P2;PMS_P1;PMS_P2;Temp;Humidity;BMP_temperature;BMP_pressure;BME280_temperature;BME280_humidity;BME280_pressure;Samples;Min_cycle;Max_cycle;Signal;HPM_P1;HPM_P2
2023/05/08 00:02:25;;;;;;;;;;;;;;;4.03;63.23;102717.08;107063;1257;60969;-89
2023/05/08 00:05:00;;;;;;;;;;;;;;;4.00;63.30;102714.77;107379;1256;60207;-86
2023/05/08 00:07:40;;;;;;;;;;;;;;;3.98;63.61;102716.48;107344;1257;124229;-86
2023/05/08 00:10:08;;;;;;;;;;;;;;;3.95;63.49;102718.47;107359;1257;66776;-87
2023/05/08 00:12:35;;;;;;;;;;;;;;;3.92;63.77;102713.34;107260;1256;124461;-87
2023/05/08 00:15:21;;;;;;;;;;;;;;;3.89;63.74;102716.58;107360;1257;62169;-87
2023/05/08 00:17:55;;;;;;;;;;;;;;;3.86;63.83;102718.10;107110;1257;61784;-87
2023/05/08 00:20:23;;;;;;;;;;;;;;;3.83;63.92;102714.87;107260;1257;76061;-87
2023/05/08 00:22:56;;;;;;;;;;;;;;;3.80;64.06;102715.49;107463;1260;64932;-85
2023/05/08 00:25:32;;;;;;;;;;;;;;;3.78;64.18;102715.98;107667;1257;124058;-85
2023/05/08 00:27:59;;;;;;;;;;;;;;;3.76;64.54;102714.83;108091;1256;60310;-85
2023/05/08 00:30:26;;;;;;;;;;;;;;;3.76;64.46;102713.19;107755;1257;124758;-86
2023/05/08 00:32:53;;;;;;;;;;;;;;;3.74;64.62;102710.80;107733;1264;73946;-85
2023/05/08 00:35:20;;;;;;;;;;;;;;;3.73;64.86;102715.86;107837;1257;65866;-85
2023/05/08 00:37:47;;;;;;;;;;;;;;;3.70;65.02;102715.92;107650;1258;124294;-85
2023/05/08 00:40:16;;;;;;;;;;;;;;;3.71;65.19;102719.58;107501;1256;62152;-85
2023/05/08 00:42:52;;;;;;;;;;;;;;;3.70;65.09;102722.63;107503;1256;124235;-86
2023/05/08 00:45:25;;;;;;;;;;;;;;;3.67;65.02;102721.19;107530;1258;74202;-84
2023/05/08 00:47:52;;;;;;;;;;;;;;;3.65;65.17;102722.38;107527;1257;66217;-85
2023/05/08 00:50:25;;;;;;;;;;;;;;;3.64;65.21;102724.35;107588;1256;124760;-87
2023/05/08 00:52:53;;;;;;;;;;;;;;;3.62;65.28;102725.41;107779;1257;60437;-86
2023/05/08 00:55:20;;;;;;;;;;;;;;;3.59;65.27;102724.64;107554;1259;124204;-86
2023/05/08 00:57:47;;;;;;;;;;;;;;;3.55;65.20;102723.79;107672;1257;75730;-85
2023/05/08 01:00:16;;;;;;;;;;;;;;;3.53;65.27;102726.71;107454;1257;124375;-85
2023/05/08 01:02:44;;;;;;;;;;;;;;;3.49;65.29;102723.48;107556;1257;71164;-85
2023/05/08 01:05:11;;;;;;;;;;;;;;;3.46;65.29;102726.86;107405;1257;61760;-85
2023/05/08 01:07:38;;;;;;;;;;;;;;;3.43;65.45;102729.02;107539;1258;60890;-85
2023/05/08 01:10:33;;;;;;;;;;;;;;;3.41;65.42;102736.48;107549;1257;76032;-90
2023/05/08 01:14:04;;;;;;;;;;;;;;;3.39;65.63;102738.41;107078;1264;124885;-91
2023/05/08 01:16:40;;;;;;;;;;;;;;;3.37;65.75;102740.11;107071;1267;72685;-85
2023/05/08 01:19:07;;;;;;;;;;;;;;;3.36;65.84;102740.36;107247;1257;124864;-86
2023/05/08 01:21:39;;;;;;;;;;;;;;;3.36;65.77;102741.26;107805;1259;60654;-86
2023/05/08 01:24:18;;;;;;;;;;;;;;;3.37;66.08;102739.42;107818;1258;125802;-84
2023/05/08 01:26:48;;;;;;;;;;;;;;;3.38;66.03;102746.27;107575;1257;65502;-84
2023/05/08 01:29:21;;;;;;;;;;;;;;;3.38;66.10;102744.67;107527;1260;73590;-85
2023/05/08 01:31:54;;;;;;;;;;;;;;;3.38;66.00;102747.71;107290;1255;126102;-85
2023/05/08 01:34:25;;;;;;;;;;;;;;;3.38;66.13;102746.67;107539;1263;60099;-86
2023/05/08 01:37:00;;;;;;;;;;;;;;;3.38;66.20;102747.15;107492;1255;125907;-85
2023/05/08 01:39:45;;;;;;;;;;;;;;;3.37;66.16;102751.05;107899;1258;66342;-86
2023/05/08 01:42:27;;;;;;;;;;;;;;;3.36;66.17;102749.06;108000;1257;125010;-85
2023/05/08 01:44:55;;;;;;;;;;;;;;;3.36;66.32;102750.68;108062;1262;61913;-85
2023/05/08 01:47:23;;;;;;;;;;;;;;;3.36;66.43;102750.98;108015;1255;60374;-85
2023/05/08 01:49:55;;;;;;;;;;;;;;;3.37;66.39;102753.51;108043;1257;125546;-86
2023/05/08 01:52:26;;;;;;;;;;;;;;;3.37;66.35;102749.86;107813;1256;68311;-85
2023/05/08 01:55:07;;;;;;;;;;;;;;;3.37;66.43;102753.27;107514;1257;125073;-85
2023/05/08 01:57:35;;;;;;;;;;;;;;;3.36;66.41;102756.20;107734;1263;60083;-85
2023/05/08 02:00:02;;;;;;;;;;;;;;;3.35;66.43;102755.56;108075;1260;61918;-85
2023/05/08 02:02:30;;;;;;;;;;;;;;;3.33;66.44;102760.06;107622;1256;124390;-83
2023/05/08 02:04:57;;;;;;;;;;;;;;;3.30;66.42;102758.11;107813;1260;67040;-85
2023/05/08 02:07:24;;;;;;;;;;;;;;;3.25;66.50;102760.00;108676;1260;124650;-85
2023/05/08 02:09:51;;;;;;;;;;;;;;;3.22;66.57;102760.51;108754;1257;60067;-85
2023/05/08 02:12:18;;;;;;;;;;;;;;;3.18;66.55;102761.96;108628;1257;125333;-85
2023/05/08 02:14:45;;;;;;;;;;;;;;;3.16;66.64;102764.52;108761;1257;75380;-85
2023/05/08 02:17:12;;;;;;;;;;;;;;;3.14;66.87;102765.21;108849;1257;67335;-83
2023/05/08 02:19:38;;;;;;;;;;;;;;;3.12;66.82;102766.30;108906;1259;124605;-84
2023/05/08 02:22:06;;;;;;;;;;;;;;;3.09;66.79;102766.00;108865;1257;60124;-84
2023/05/08 02:24:33;;;;;;;;;;;;;;;3.05;66.96;102767.20;108802;1257;126145;-84
2023/05/08 02:27:03;;;;;;;;;;;;;;;3.02;67.16;102771.47;108830;1263;76862;-85
2023/05/08 02:29:30;;;;;;;;;;;;;;;2.99;66.91;102773.64;108885;1257;67581;-84
2023/05/08 02:31:57;;;;;;;;;;;;;;;2.97;67.03;102776.00;108766;1257;125054;-84
2023/05/08 02:34:24;;;;;;;;;;;;;;;2.94;67.17;102775.77;108802;1257;60725;-84
2023/05/08 02:36:51;;;;;;;;;;;;;;;2.91;67.25;102772.40;108893;1255;125234;-85
2023/05/08 02:39:18;;;;;;;;;;;;;;;2.88;67.38;102775.84;108962;1257;75487;-85
2023/05/08 02:41:46;;;;;;;;;;;;;;;2.87;67.44;102776.23;108980;1257;65892;-84
2023/05/08 02:44:12;;;;;;;;;;;;;;;2.86;67.48;102773.94;108881;1257;125287;-84
2023/05/08 02:46:53;;;;;;;;;;;;;;;2.86;67.41;102776.14;108838;1257;60196;-84
2023/05/08 02:49:26;;;;;;;;;;;;;;;2.85;67.46;102776.20;108892;1257;125019;-85
2023/05/08 02:51:54;;;;;;;;;;;;;;;2.85;67.67;102774.82;108787;1257;75496;-84
2023/05/08 02:54:21;;;;;;;;;;;;;;;2.85;67.71;102772.38;108768;1256;124139;-85
2023/05/08 02:56:56;;;;;;;;;;;;;;;2.85;67.65;102772.23;108982;1258;73055;-85
2023/05/08 02:59:30;;;;;;;;;;;;;;;2.87;67.66;102778.09;108873;1256;60088;-85
2023/05/08 03:02:05;;;;;;;;;;;;;;;2.88;67.91;102775.43;108741;1257;125351;-85
2023/05/08 03:04:33;;;;;;;;;;;;;;;2.89;67.96;102775.90;108781;1257;75502;-85
2023/05/08 03:07:03;;;;;;;;;;;;;;;2.90;67.81;102777.73;108747;1257;124787;-84
2023/05/08 03:09:32;;;;;;;;;;;;;;;2.92;67.86;102779.10;108987;1260;71409;-85
2023/05/08 03:12:02;;;;;;;;;;;;;;;2.94;67.97;102781.64;109005;1257;60310;-84
2023/05/08 03:14:29;;;;;;;;;;;;;;;2.96;68.07;102783.09;108694;1257;125311;-84
2023/05/08 03:16:56;;;;;;;;;;;;;;;2.99;68.33;102782.45;108791;1256;76016;-84
2023/05/08 03:19:25;;;;;;;;;;;;;;;3.04;68.40;102787.21;108683;1256;125670;-84
2023/05/08 03:21:52;;;;;;;;;;;;;;;3.09;68.40;102785.83;108703;1257;72454;-85
2023/05/08 03:24:19;;;;;;;;;;;;;;;3.16;68.18;102786.24;108828;1258;125509;-85
2023/05/08 03:26:45;;;;;;;;;;;;;;;3.25;68.32;102786.02;108810;1257;60159;-84
2023/05/08 03:29:13;;;;;;;;;;;;;;;3.39;68.37;102786.63;108892;1257;74772;-84
2023/05/08 03:31:40;;;;;;;;;;;;;;;3.56;68.26;102784.66;108888;1257;125414;-85
2023/05/08 03:34:07;;;;;;;;;;;;;;;3.78;68.34;102785.83;108744;1256;71433;-85
2023/05/08 03:36:34;;;;;;;;;;;;;;;4.07;68.21;102786.89;107919;1257;125407;-85
2023/05/08 03:39:02;;;;;;;;;;;;;;;4.60;68.57;102783.64;107844;1257;62050;-85
2023/05/08 03:41:29;;;;;;;;;;;;;;;5.68;69.13;102778.73;107567;1257;76464;-85
2023/05/08 03:43:56;;;;;;;;;;;;;;;7.40;69.29;102770.31;107635;1256;124985;-85
2023/05/08 03:46:23;;;;;;;;;;;;;;;9.11;68.01;102770.52;107861;1257;71411;-85
2023/05/08 03:48:50;;;;;;;;;;;;;;;10.72;66.20;102762.61;107615;1256;124828;-83
2023/05/08 03:51:16;;;;;;;;;;;;;;;12.16;64.24;102760.00;108141;1257;61961;-85
2023/05/08 03:53:43;;;;;;;;;;;;;;;13.43;62.11;102760.82;108225;1257;76711;-84
2023/05/08 03:56:10;;;;;;;;;;;;;;;14.55;60.03;102755.62;108141;1260;124904;-84
2023/05/08 03:58:37;;;;;;;;;;;;;;;15.55;57.97;102754.17;107988;1260;71848;-84
2023/05/08 04:01:07;;;;;;;;;;;;;;;16.48;56.38;102752.09;107830;1258;125659;-84
2023/05/08 04:03:35;;;;;;;;;;;;;;;17.43;54.85;102752.02;107967;1256;61901;-82
2023/05/08 04:06:05;;;;;;;;;;;;;;;18.35;53.36;102751.10;107810;1260;74444;-83
2023/05/08 04:08:33;;;;;;;;;;;;;;;19.24;51.77;102753.34;107751;1256;68469;-84
2023/05/08 04:11:05;;;;;;;;;;;;;;;20.00;50.16;102752.90;108038;1257;71300;-84
2023/05/08 04:13:33;;;;;;;;;;;;;;;20.73;48.63;102753.94;108557;1257;126500;-85
2023/05/08 04:16:04;;;;;;;;;;;;;;;21.43;47.35;102756.50;108403;1257;61183;-85
2023/05/08 04:18:31;;;;;;;;;;;;;;;22.09;45.93;102751.67;107533;1256;125432;-85
2023/05/08 04:20:58;;;;;;;;;;;;;;;22.62;44.71;102754.63;107657;1263;68198;-85
2023/05/08 04:23:26;;;;;;;;;;;;;;;23.17;43.62;102756.02;107647;1256;71246;-85
2023/05/08 04:25:53;;;;;;;;;;;;;;;23.78;42.67;102759.83;107467;1257;124836;-85
2023/05/08 04:28:19;;;;;;;;;;;;;;;24.33;41.50;102762.41;107853;1257;60179;-85
2023/05/08 04:30:46;;;;;;;;;;;;;;;24.88;40.62;102762.54;107756;1257;125391;-85
2023/05/08 04:33:13;;;;;;;;;;;;;;;25.41;39.78;102758.04;107773;1257;67060;-85
2023/05/08 04:35:41;;;;;;;;;;;;;;;25.84;38.59;102762.85;108745;1257;71375;-87
2023/05/08 04:38:07;;;;;;;;;;;;;;;26.21;37.86;102767.27;108924;1257;124905;-87
2023/05/08 04:40:35;;;;;;;;;;;;;;;26.80;37.36;102762.76;108882;1257;60172;-91
2023/05/08 04:43:02;;;;;;;;;;;;;;;27.48;36.26;102770.08;107695;1257;124733;-87
2023/05/08 04:45:29;;;;;;;;;;;;;;;27.87;35.33;102775.65;107767;1257;66067;-90
2023/05/08 04:47:56;;;;;;;;;;;;;;;28.23;34.64;102772.76;107765;1257;64190;-83
2023/05/08 04:50:23;;;;;;;;;;;;;;;28.56;33.82;102772.92;107622;1260;124760;-84
2023/05/08 04:52:50;;;;;;;;;;;;;;;28.78;33.27;102779.36;107809;1257;61894;-84
2023/05/08 04:55:17;;;;;;;;;;;;;;;29.12;32.75;102784.86;107582;1256;124618;-80
2023/05/08 04:57:44;;;;;;;;;;;;;;;29.49;32.22;102779.01;108020;1257;62150;-80
2023/05/08 05:00:11;;;;;;;;;;;;;;;29.77;31.62;102782.73;107679;1257;125190;-79
2023/05/08 05:02:38;;;;;;;;;;;;;;;30.14;31.19;102782.96;107407;1257;62092;-82
2023/05/08 05:05:05;;;;;;;;;;;;;;;30.45;30.52;102782.37;107760;1260;62098;-79
2023/05/08 05:07:32;;;;;;;;;;;;;;;30.64;29.87;102785.33;107045;1260;125141;-81
2023/05/08 05:09:59;;;;;;;;;;;;;;;30.56;29.18;102786.23;107834;1255;62072;-81
2023/05/08 05:12:26;;;;;;;;;;;;;;;30.57;28.98;102786.58;107774;1257;124645;-81
2023/05/08 05:14:53;;;;;;;;;;;;;;;30.80;28.68;102785.95;108299;1256;60054;-81
2023/05/08 05:17:20;;;;;;;;;;;;;;;30.90;28.11;102786.59;107677;1259;62084;-81
2023/05/08 05:19:47;;;;;;;;;;;;;;;30.94;27.88;102789.77;107313;1260;125786;-80
2023/05/08 05:22:14;;;;;;;;;;;;;;;31.12;27.68;102790.15;107345;1257;60059;-80
2023/05/08 05:24:41;;;;;;;;;;;;;;;31.14;27.25;102790.65;107269;1258;125067;-82
2023/05/08 05:27:08;;;;;;;;;;;;;;;31.06;26.97;102791.59;107600;1257;60496;-80
2023/05/08 05:29:35;;;;;;;;;;;;;;;30.83;26.72;102794.58;107805;1256;62249;-81
2023/05/08 05:32:02;;;;;;;;;;;;;;;29.96;26.25;102795.09;107778;1256;126152;-81
2023/05/08 05:34:29;;;;;;;;;;;;;;;27.94;26.04;102801.05;108054;1256;60962;-81
2023/05/08 05:36:55;;;;;;;;;;;;;;;25.64;26.68;102807.50;107879;1257;124908;-81
2023/05/08 05:39:22;;;;;;;;;;;;;;;23.70;27.40;102805.66;107325;1257;61894;-81
2023/05/08 05:41:49;;;;;;;;;;;;;;;22.04;28.34;102812.75;107557;1257;60143;-81
2023/05/08 05:44:16;;;;;;;;;;;;;;;20.62;29.03;102818.69;107825;1260;125206;-81
2023/05/08 05:46:44;;;;;;;;;;;;;;;19.39;29.93;102816.34;107992;1257;66461;-81
2023/05/08 05:49:11;;;;;;;;;;;;;;;18.45;30.93;102823.54;107636;1257;125299;-81
2023/05/08 05:51:38;;;;;;;;;;;;;;;17.70;31.48;102823.96;107867;1256;62333;-81
2023/05/08 05:54:05;;;;;;;;;;;;;;;17.08;32.14;102827.97;107477;1262;61964;-81
2023/05/08 05:56:32;;;;;;;;;;;;;;;16.51;32.81;102826.80;107618;1257;76100;-81
2023/05/08 05:58:59;;;;;;;;;;;;;;;16.04;33.31;102827.46;107784;1257;65333;-81
2023/05/08 06:01:27;;;;;;;;;;;;;;;15.58;33.99;102826.83;107709;1256;126440;-81
2023/05/08 06:03:54;;;;;;;;;;;;;;;15.16;34.38;102824.34;107596;1256;61585;-80
2023/05/08 06:06:21;;;;;;;;;;;;;;;14.78;34.98;102830.05;107543;1257;124630;-81
2023/05/08 06:08:48;;;;;;;;;;;;;;;14.45;35.63;102830.08;107602;1267;76843;-81
2023/05/08 06:11:15;;;;;;;;;;;;;;;14.21;36.22;102830.63;107851;1256;67252;-81
2023/05/08 06:13:43;;;;;;;;;;;;;;;14.00;36.75;102825.83;107702;1256;125034;-81
2023/05/08 06:16:10;;;;;;;;;;;;;;;13.87;37.41;102828.95;107872;1257;60509;-81
2023/05/08 06:18:37;;;;;;;;;;;;;;;13.74;37.69;102829.43;107744;1259;125752;-81
2023/05/08 06:21:04;;;;;;;;;;;;;;;13.60;38.04;102830.41;107878;1257;75933;-81
2023/05/08 06:23:32;;;;;;;;;;;;;;;13.51;38.34;102828.06;107989;1257;67382;-81
2023/05/08 06:25:58;;;;;;;;;;;;;;;13.42;38.63;102830.12;107858;1255;125556;-81
2023/05/08 06:28:26;;;;;;;;;;;;;;;13.29;38.85;102830.55;108724;1255;59860;-81
2023/05/08 06:30:53;;;;;;;;;;;;;;;13.20;39.12;102833.97;108922;1257;125046;-81
2023/05/08 06:33:20;;;;;;;;;;;;;;;13.13;39.30;102835.77;108808;1256;74601;-81
2023/05/08 06:35:47;;;;;;;;;;;;;;;13.08;39.64;102838.52;108776;1256;67153;-81
2023/05/08 06:38:14;;;;;;;;;;;;;;;13.06;39.88;102837.15;108658;1257;124397;-81
2023/05/08 06:40:42;;;;;;;;;;;;;;;13.05;40.05;102835.38;108807;1260;60289;-82
2023/05/08 06:43:09;;;;;;;;;;;;;;;13.07;40.46;102836.00;108700;1261;125943;-81
2023/05/08 06:45:36;;;;;;;;;;;;;;;13.08;40.42;102839.23;108717;1257;75475;-82
2023/05/08 06:48:03;;;;;;;;;;;;;;;13.09;40.49;102837.82;108679;1259;66544;-81
2023/05/08 06:50:30;;;;;;;;;;;;;;;13.09;40.57;102837.16;108940;1256;71269;-81
2023/05/08 06:52:57;;;;;;;;;;;;;;;13.12;40.80;102839.60;108792;1258;60742;-82
2023/05/08 06:55:25;;;;;;;;;;;;;;;13.17;41.01;102833.99;108668;1272;126100;-81
2023/05/08 06:57:52;;;;;;;;;;;;;;;13.19;41.08;102831.48;108753;1255;75567;-82
2023/05/08 07:00:19;;;;;;;;;;;;;;;13.24;41.22;102831.36;108816;1257;124718;-81
2023/05/08 07:02:46;;;;;;;;;;;;;;;13.29;41.19;102831.92;108859;1257;71512;-82
2023/05/08 07:05:13;;;;;;;;;;;;;;;13.32;41.05;102832.81;108881;1256;60139;-81
2023/05/08 07:07:41;;;;;;;;;;;;;;;13.34;41.02;102831.35;108785;1255;125369;-81
2023/05/08 07:10:08;;;;;;;;;;;;;;;13.38;41.18;102830.10;109053;1256;75667;-82
2023/05/08 07:12:35;;;;;;;;;;;;;;;13.42;41.20;102827.64;108939;1256;125721;-82
2023/05/08 07:15:02;;;;;;;;;;;;;;;13.45;41.06;102832.16;108997;1259;73694;-82
2023/05/08 07:17:31;;;;;;;;;;;;;;;13.47;40.98;102832.98;108846;1257;60651;-82
2023/05/08 07:20:08;;;;;;;;;;;;;;;13.49;41.21;102832.36;108769;1256;124588;-82
2023/05/08 07:22:35;;;;;;;;;;;;;;;13.55;41.23;102831.42;108861;1258;73915;-81
2023/05/08 07:25:04;;;;;;;;;;;;;;;13.63;41.13;102832.83;108758;1257;125649;-83
2023/05/08 07:27:31;;;;;;;;;;;;;;;13.70;41.08;102834.22;108791;1257;72066;-82
2023/05/08 07:30:02;;;;;;;;;;;;;;;13.76;40.88;102831.33;108798;1257;60072;-82
2023/05/08 07:32:30;;;;;;;;;;;;;;;13.80;40.88;102830.27;108640;1273;126344;-82
2023/05/08 07:35:04;;;;;;;;;;;;;;;13.85;41.11;102831.52;108819;1257;74151;-83
2023/05/08 07:37:32;;;;;;;;;;;;;;;13.87;41.28;102826.34;108628;1256;124984;-82
2023/05/08 07:39:58;;;;;;;;;;;;;;;13.90;41.53;102827.17;108930;1257;73244;-82
2023/05/08 07:42:25;;;;;;;;;;;;;;;13.96;41.75;102821.95;108805;1259;124999;-82
2023/05/08 07:44:52;;;;;;;;;;;;;;;14.01;41.89;102823.95;108860;1260;60105;-82
2023/05/08 07:47:19;;;;;;;;;;;;;;;14.04;41.74;102825.83;109037;1258;75341;-82
2023/05/08 07:49:46;;;;;;;;;;;;;;;14.07;41.79;102825.97;108749;1257;124835;-82
2023/05/08 07:52:13;;;;;;;;;;;;;;;14.09;41.73;102823.61;108802;1256;72047;-82
2023/05/08 07:54:40;;;;;;;;;;;;;;;14.11;41.64;102818.36;108839;1256;125499;-82
2023/05/08 07:57:10;;;;;;;;;;;;;;;14.12;41.72;102823.02;109005;1256;60592;-82
2023/05/08 07:59:36;;;;;;;;;;;;;;;14.12;41.49;102821.08;109033;1256;74861;-81
2023/05/08 08:02:03;;;;;;;;;;;;;;;14.13;41.48;102819.92;108800;1255;124596;-81
2023/05/08 08:04:30;;;;;;;;;;;;;;;14.19;41.63;102821.90;108737;1270;71972;-82
2023/05/08 08:06:57;;;;;;;;;;;;;;;14.29;41.65;102823.20;108935;1256;124447;-82
2023/05/08 08:09:24;;;;;;;;;;;;;;;14.39;41.61;102826.27;108865;1255;60215;-81
2023/05/08 08:11:51;;;;;;;;;;;;;;;14.45;41.29;102827.06;108807;1256;75506;-82
2023/05/08 08:14:18;;;;;;;;;;;;;;;14.47;40.87;102827.66;108711;1257;124382;-82
2023/05/08 08:16:45;;;;;;;;;;;;;;;14.49;40.84;102825.28;108974;1256;71672;-82
2023/05/08 08:19:12;;;;;;;;;;;;;;;14.52;40.50;102822.94;108729;1260;124666;-82
2023/05/08 08:21:42;;;;;;;;;;;;;;;14.56;40.64;102825.97;108813;1257;60403;-82
2023/05/08 08:24:09;;;;;;;;;;;;;;;14.57;40.40;102827.11;108715;1257;125774;-82
2023/05/08 08:26:36;;;;;;;;;;;;;;;14.58;40.35;102825.74;108820;1257;67917;-82
2023/05/08 08:29:03;;;;;;;;;;;;;;;14.64;40.51;102824.19;108993;1256;72945;-82
2023/05/08 08:31:30;;;;;;;;;;;;;;;14.70;40.53;102821.05;108734;1256;125183;-82
2023/05/08 08:33:57;;;;;;;;;;;;;;;14.75;40.31;102823.77;108836;1256;59977;-81
2023/05/08 08:36:24;;;;;;;;;;;;;;;14.80;39.59;102822.39;108728;1257;124860;-81
2023/05/08 08:38:53;;;;;;;;;;;;;;;14.83;38.92;102820.02;108892;1257;66274;-82
2023/05/08 08:41:21;;;;;;;;;;;;;;;14.85;38.68;102826.63;108804;1259;72645;-82
2023/05/08 08:43:47;;;;;;;;;;;;;;;14.84;38.24;102826.77;108721;1257;125292;-83
2023/05/08 08:46:14;;;;;;;;;;;;;;;14.84;38.08;102823.76;108870;1255;59894;-82
2023/05/08 08:48:47;;;;;;;;;;;;;;;14.93;38.01;102822.71;108711;1256;126774;-82
2023/05/08 08:51:17;;;;;;;;;;;;;;;15.00;37.33;102823.53;108827;1259;67287;-82
2023/05/08 08:53:45;;;;;;;;;;;;;;;15.05;36.89;102820.55;108808;1255;73169;-82
2023/05/08 08:56:12;;;;;;;;;;;;;;;15.12;36.41;102821.70;108738;1257;125322;-83
2023/05/08 08:58:55;;;;;;;;;;;;;;;15.19;36.30;102824.26;108885;1255;59881;-82
2023/05/08 09:01:22;;;;;;;;;;;;;;;15.24;35.78;102821.29;108799;1257;124509;-83
2023/05/08 09:03:49;;;;;;;;;;;;;;;15.21;35.54;102818.34;108823;1257;66315;-83
2023/05/08 09:06:16;;;;;;;;;;;;;;;15.25;35.98;102816.52;108726;1257;125487;-82
2023/05/08 09:08:43;;;;;;;;;;;;;;;15.36;36.19;102816.27;108800;1257;60238;-83
2023/05/08 09:11:10;;;;;;;;;;;;;;;15.45;35.92;102818.54;108874;1257;60696;-83
2023/05/08 09:13:37;;;;;;;;;;;;;;;15.53;36.07;102821.68;108963;1257;125006;-83
2023/05/08 09:16:04;;;;;;;;;;;;;;;15.62;36.19;102822.55;109053;1255;65980;-83
2023/05/08 09:18:31;;;;;;;;;;;;;;;15.68;35.87;102817.45;108840;1256;125173;-83
2023/05/08 09:21:00;;;;;;;;;;;;;;;15.70;35.56;102820.02;109042;1270;60430;-83
2023/05/08 09:23:33;;;;;;;;;;;;;;;15.66;35.09;102820.92;108822;1256;60558;-83
2023/05/08 09:26:01;;;;;;;;;;;;;;;15.57;34.81;102819.36;108691;1257;124961;-83
2023/05/08 09:28:40;;;;;;;;;;;;;;;15.50;34.58;102814.52;108862;1255;67063;-83
2023/05/08 09:31:11;;;;;;;;;;;;;;;15.49;34.75;102818.33;108749;1258;124709;-83
2023/05/08 09:33:45;;;;;;;;;;;;;;;15.51;34.39;102813.48;108712;1255;59930;-83
2023/05/08 09:36:23;;;;;;;;;;;;;;;15.52;34.39;102810.15;108709;1259;124736;-83
2023/05/08 09:38:51;;;;;;;;;;;;;;;15.58;34.43;102816.21;108783;1256;75608;-83
2023/05/08 09:41:19;;;;;;;;;;;;;;;15.62;34.10;102815.99;108846;1257;67688;-83
2023/05/08 09:43:58;;;;;;;;;;;;;;;15.56;33.75;102811.37;108865;1255;125432;-83
2023/05/08 09:46:25;;;;;;;;;;;;;;;15.54;33.93;102805.81;108670;1257;60178;-82
2023/05/08 09:48:53;;;;;;;;;;;;;;;15.60;34.23;102807.96;108679;1257;124646;-83
2023/05/08 09:51:38;;;;;;;;;;;;;;;15.68;34.22;102807.73;108832;1256;74789;-83
2023/05/08 09:54:22;;;;;;;;;;;;;;;15.78;34.14;102807.23;108788;1256;125174;-83
2023/05/08 09:56:48;;;;;;;;;;;;;;;15.81;33.70;102803.98;109029;1256;72674;-83
2023/05/08 09:59:25;;;;;;;;;;;;;;;15.78;33.22;102798.20;108917;1259;60280;-83
2023/05/08 10:01:52;;;;;;;;;;;;;;;15.76;33.21;102797.80;108670;1257;124860;-83
2023/05/08 10:04:39;;;;;;;;;;;;;;;15.79;33.33;102797.38;108811;1257;74231;-83
2023/05/08 10:07:06;;;;;;;;;;;;;;;15.84;33.67;102796.67;108679;1259;124737;-83
2023/05/08 10:09:33;;;;;;;;;;;;;;;15.89;33.39;102789.39;109024;1257;72689;-83
2023/05/08 10:12:00;;;;;;;;;;;;;;;15.89;33.21;102792.92;108866;1256;59911;-83
2023/05/08 10:14:26;;;;;;;;;;;;;;;15.91;33.25;102794.07;108732;1256;125288;-83
2023/05/08 10:16:53;;;;;;;;;;;;;;;15.89;32.95;102792.77;108956;1255;73406;-83
2023/05/08 10:19:21;;;;;;;;;;;;;;;15.86;33.13;102786.45;108761;1256;125097;-82
2023/05/08 10:21:57;;;;;;;;;;;;;;;15.88;33.54;102787.59;108812;1257;73404;-82
2023/05/08 10:24:28;;;;;;;;;;;;;;;15.96;33.26;102789.63;108615;1256;125135;-82
2023/05/08 10:27:02;;;;;;;;;;;;;;;16.03;33.50;102790.08;108906;1256;60190;-82
2023/05/08 10:30:00;;;;;;;;;;;;;;;16.12;33.06;102785.61;108824;1257;78020;-81
2023/05/08 10:32:27;;;;;;;;;;;;;;;16.16;32.97;102785.22;108712;1260;125783;-83
2023/05/08 10:35:00;;;;;;;;;;;;;;;16.13;32.72;102781.04;108769;1261;72377;-83
2023/05/08 10:37:28;;;;;;;;;;;;;;;16.11;32.88;102781.14;108657;1256;124660;-82
2023/05/08 10:39:55;;;;;;;;;;;;;;;16.13;32.85;102778.91;108793;1257;59995;-83
2023/05/08 10:42:22;;;;;;;;;;;;;;;16.12;32.72;102776.94;108740;1256;125330;-81
2023/05/08 10:44:49;;;;;;;;;;;;;;;16.12;32.67;102774.27;108832;1256;66531;-83
2023/05/08 10:47:25;;;;;;;;;;;;;;;16.11;32.54;102771.95;108908;1256;71465;-81
2023/05/08 10:50:07;;;;;;;;;;;;;;;16.08;32.40;102768.65;108759;1255;125760;-82
2023/05/08 10:52:51;;;;;;;;;;;;;;;16.10;32.28;102766.05;108850;1255;60206;-82
2023/05/08 10:55:19;;;;;;;;;;;;;;;16.14;32.52;102759.63;108654;1260;124539;-81
2023/05/08 10:58:08;;;;;;;;;;;;;;;16.21;32.79;102762.70;108706;1257;65897;-82
2023/05/08 11:00:53;;;;;;;;;;;;;;;16.26;32.91;102763.92;108712;1256;125276;-82
2023/05/08 11:03:23;;;;;;;;;;;;;;;16.31;32.98;102762.15;108798;1259;60115;-82
2023/05/08 11:05:51;;;;;;;;;;;;;;;16.32;33.00;102758.85;108716;1260;60419;-82
2023/05/08 11:08:23;;;;;;;;;;;;;;;16.33;33.10;102753.38;108575;1256;125460;-82
2023/05/08 11:11:03;;;;;;;;;;;;;;;16.32;33.23;102755.64;108707;1257;68742;-82
2023/05/08 11:13:40;;;;;;;;;;;;;;;16.35;33.12;102750.05;108810;1257;124595;-83
2023/05/08 11:16:09;;;;;;;;;;;;;;;16.34;33.14;102748.27;108821;1257;60286;-83
2023/05/08 11:18:36;;;;;;;;;;;;;;;16.39;33.27;102744.88;108827;1257;125187;-82
2023/05/08 11:21:04;;;;;;;;;;;;;;;16.42;33.19;102739.15;108740;1257;75254;-83
2023/05/08 11:23:32;;;;;;;;;;;;;;;16.48;33.49;102734.91;108763;1262;65839;-82
2023/05/08 11:26:03;;;;;;;;;;;;;;;16.53;33.32;102727.08;108721;1257;124746;-81
2023/05/08 11:28:30;;;;;;;;;;;;;;;16.56;33.41;102728.96;109010;1257;60299;-81
2023/05/08 11:31:01;;;;;;;;;;;;;;;16.60;33.41;102727.86;108726;1256;124846;-81
2023/05/08 11:33:28;;;;;;;;;;;;;;;16.59;33.22;102726.04;108780;1256;75395;-82
2023/05/08 11:35:59;;;;;;;;;;;;;;;16.56;33.31;102722.04;108813;1258;65757;-81
2023/05/08 11:38:34;;;;;;;;;;;;;;;16.59;33.48;102723.90;108738;1255;71295;-81
2023/05/08 11:41:07;;;;;;;;;;;;;;;16.66;33.42;102725.00;108738;1255;60221;-81
2023/05/08 11:43:37;;;;;;;;;;;;;;;16.73;33.38;102721.17;108767;1257;124963;-81
2023/05/08 11:46:05;;;;;;;;;;;;;;;16.82;33.27;102725.52;108794;1257;76630;-81
2023/05/08 11:48:32;;;;;;;;;;;;;;;16.83;32.94;102726.80;108750;1256;125264;-82
2023/05/08 11:50:59;;;;;;;;;;;;;;;16.71;32.63;102725.35;108873;1256;73116;-81
2023/05/08 11:53:30;;;;;;;;;;;;;;;16.58;32.60;102728.13;108745;1257;60161;-81
2023/05/08 11:55:57;;;;;;;;;;;;;;;16.51;32.49;102727.56;108669;1257;126047;-81
2023/05/08 11:58:26;;;;;;;;;;;;;;;16.48;32.13;102722.49;108895;1260;75663;-81
2023/05/08 12:00:54;;;;;;;;;;;;;;;16.43;32.01;102716.31;108572;1258;125203;-81
2023/05/08 12:03:21;;;;;;;;;;;;;;;16.41;32.25;102718.88;108749;1257;72818;-81
2023/05/08 12:08:55;;;;;;;;;;;;;;;16.48;32.36;102718.79;108580;1257;60249;-82
2023/05/08 12:11:30;;;;;;;;;;;;;;;16.52;32.23;102718.90;108815;1256;78604;-82
2023/05/08 12:18:04;;;;;;;;;;;;;;;16.49;31.91;102715.10;104481;1262;5235493;-80
2023/05/08 12:20:33;;;;;;;;;;;;;;;16.50;31.69;102709.64;108426;1262;125288;-81
2023/05/08 12:23:15;;;;;;;;;;;;;;;16.50;31.96;102704.14;108383;1262;62545;-83
2023/05/08 12:25:42;;;;;;;;;;;;;;;16.55;31.66;102706.20;108332;1256;124939;-83
2023/05/08 12:28:08;;;;;;;;;;;;;;;16.58;31.88;102710.94;108847;1256;66925;-83
2023/05/08 12:30:35;;;;;;;;;;;;;;;16.64;31.65;102711.31;108753;1260;125724;-83
2023/05/08 12:33:03;;;;;;;;;;;;;;;16.66;31.69;102712.43;108736;1256;59885;-83
2023/05/08 12:35:30;;;;;;;;;;;;;;;16.71;31.89;102712.58;108878;1259;59800;-83
2023/05/08 12:38:01;;;;;;;;;;;;;;;16.77;32.12;102713.66;108696;1257;126542;-81
2023/05/08 12:40:33;;;;;;;;;;;;;;;16.81;31.91;102707.93;108757;1257;68277;-80
2023/05/08 12:43:02;;;;;;;;;;;;;;;16.83;31.91;102704.27;108801;1257;125052;-83
2023/05/08 12:45:29;;;;;;;;;;;;;;;16.85;31.95;102709.52;108848;1257;60180;-81